sensor_id;sensor_type;location;lat;lon;timestamp;P1;durP1;ratioP1;P2;durP2;ratioP2
40541;SDS011;49288;52.194;5.676;2022-07-04T00:00:21;4.60;;;2.40;;
40541;SDS011;49288;52.194;5.676;2022-07-04T00:05:24;4.43;;;2.10;;
40541;SDS011;49288;52.194;5.676;2022-07-04T00:10:27;6.40;;;2.10;;
40541;SDS011;49288;52.194;5.676;2022-07-04T00:15:29;4.90;;;2.08;;
40541;SDS011;49288;52.194;5.676;2022-07-04T00:20:32;3.25;;;1.92;;
40541;SDS011;49288;52.194;5.676;2022-07-04T00:25:35;4.03;;;2.10;;
40541;SDS011;49288;52.194;5.676;2022-07-04T00:30:38;6.15;;;2.50;;
40541;SDS011;49288;52.194;5.676;2022-07-04T00:35:41;3.03;;;2.10;;
40541;SDS011;49288;52.194;5.676;2022-07-04T00:45:48;3.03;;;2.10;;
40541;SDS011;49288;52.194;5.676;2022-07-04T00:50:51;4.55;;;2.30;;
40541;SDS011;49288;52.194;5.676;2022-07-04T00:55:54;5.78;;;2.30;;
40541;SDS011;49288;52.194;5.676;2022-07-04T01:00:59;3.55;;;2.13;;
40541;SDS011;49288;52.194;5.676;2022-07-04T01:06:01;3.08;;;2.00;;
40541;SDS011;49288;52.194;5.676;2022-07-04T01:11:05;3.20;;;2.20;;
40541;SDS011;49288;52.194;5.676;2022-07-04T01:16:08;4.57;;;2.00;;
40541;SDS011;49288;52.194;5.676;2022-07-04T01:21:13;3.53;;;2.38;;
40541;SDS011;49288;52.194;5.676;2022-07-04T01:26:15;5.03;;;2.63;;
40541;SDS011;49288;52.194;5.676;2022-07-04T01:31:20;4.93;;;2.10;;
40541;SDS011;49288;52.194;5.676;2022-07-04T01:36:23;5.03;;;2.38;;
40541;SDS011;49288;52.194;5.676;2022-07-04T01:41:26;3.95;;;2.55;;
40541;SDS011;49288;52.194;5.676;2022-07-04T01:46:28;4.20;;;2.25;;
40541;SDS011;49288;52.194;5.676;2022-07-04T01:51:31;2.88;;;2.17;;
40541;SDS011;49288;52.194;5.676;2022-07-04T01:56:34;3.30;;;2.30;;
40541;SDS011;49288;52.194;5.676;2022-07-04T02:01:38;5.83;;;2.60;;
40541;SDS011;49288;52.194;5.676;2022-07-04T02:06:41;3.47;;;2.30;;
40541;SDS011;49288;52.194;5.676;2022-07-04T02:11:44;3.78;;;2.40;;
40541;SDS011;49288;52.194;5.676;2022-07-04T02:17:24;3.47;;;2.58;;
40541;SDS011;49288;52.194;5.676;2022-07-04T02:22:29;7.20;;;3.35;;
40541;SDS011;49288;52.194;5.676;2022-07-04T02:27:34;3.92;;;2.88;;
40541;SDS011;49288;52.194;5.676;2022-07-04T02:32:37;5.95;;;2.70;;
40541;SDS011;49288;52.194;5.676;2022-07-04T02:37:43;4.25;;;2.60;;
40541;SDS011;49288;52.194;5.676;2022-07-04T02:42:46;4.03;;;2.70;;
40541;SDS011;49288;52.194;5.676;2022-07-04T02:47:48;5.40;;;2.72;;
40541;SDS011;49288;52.194;5.676;2022-07-04T02:52:51;3.92;;;2.35;;
40541;SDS011;49288;52.194;5.676;2022-07-04T02:57:54;4.57;;;2.30;;
40541;SDS011;49288;52.194;5.676;2022-07-04T03:02:56;3.17;;;2.30;;
40541;SDS011;49288;52.194;5.676;2022-07-04T03:07:59;3.17;;;2.40;;
40541;SDS011;49288;52.194;5.676;2022-07-04T03:13:03;6.05;;;2.85;;
40541;SDS011;49288;52.194;5.676;2022-07-04T03:18:10;6.05;;;2.83;;
40541;SDS011;49288;52.194;5.676;2022-07-04T03:23:13;7.28;;;3.03;;
40541;SDS011;49288;52.194;5.676;2022-07-04T03:28:15;3.65;;;2.70;;
40541;SDS011;49288;52.194;5.676;2022-07-04T03:33:18;3.95;;;2.67;;
40541;SDS011;49288;52.194;5.676;2022-07-04T03:38:21;4.57;;;2.88;;
40541;SDS011;49288;52.194;5.676;2022-07-04T03:43:23;3.88;;;2.90;;
40541;SDS011;49288;52.194;5.676;2022-07-04T03:48:26;4.43;;;2.67;;
40541;SDS011;49288;52.194;5.676;2022-07-04T03:53:29;6.03;;;3.03;;
40541;SDS011;49288;52.194;5.676;2022-07-04T03:58:32;4.10;;;2.78;;
40541;SDS011;49288;52.194;5.676;2022-07-04T04:03:34;4.15;;;2.70;;
40541;SDS011;49288;52.194;5.676;2022-07-04T04:08:56;5.60;;;2.95;;
40541;SDS011;49288;52.194;5.676;2022-07-04T04:13:59;4.78;;;3.00;;
40541;SDS011;49288;52.194;5.676;2022-07-04T04:19:01;4.78;;;3.05;;
40541;SDS011;49288;52.194;5.676;2022-07-04T04:24:04;6.63;;;2.97;;
40541;SDS011;49288;52.194;5.676;2022-07-04T04:29:07;7.57;;;2.90;;
40541;SDS011;49288;52.194;5.676;2022-07-04T04:34:10;3.47;;;2.50;;
40541;SDS011;49288;52.194;5.676;2022-07-04T04:39:31;4.85;;;2.78;;
40541;SDS011;49288;52.194;5.676;2022-07-04T04:44:34;4.47;;;2.85;;
40541;SDS011;49288;52.194;5.676;2022-07-04T04:49:36;4.85;;;2.60;;
40541;SDS011;49288;52.194;5.676;2022-07-04T04:54:39;5.38;;;3.28;;
40541;SDS011;49288;52.194;5.676;2022-07-04T04:59:43;10.38;;;3.97;;
40541;SDS011;49288;52.194;5.676;2022-07-04T05:04:45;10.75;;;4.20;;
40541;SDS011;49288;52.194;5.676;2022-07-04T05:09:48;5.20;;;3.55;;
40541;SDS011;49288;52.194;5.676;2022-07-04T05:14:52;18.27;;;5.43;;
40541;SDS011;49288;52.194;5.676;2022-07-04T05:19:55;9.75;;;4.95;;
40541;SDS011;49288;52.194;5.676;2022-07-04T05:24:58;6.57;;;4.55;;
40541;SDS011;49288;52.194;5.676;2022-07-04T05:30:04;11.93;;;5.30;;
40541;SDS011;49288;52.194;5.676;2022-07-04T05:35:07;9.48;;;5.82;;
40541;SDS011;49288;52.194;5.676;2022-07-04T05:40:10;15.07;;;8.68;;
40541;SDS011;49288;52.194;5.676;2022-07-04T05:45:13;18.45;;;9.85;;
40541;SDS011;49288;52.194;5.676;2022-07-04T05:50:18;47.78;;;19.42;;
40541;SDS011;49288;52.194;5.676;2022-07-04T05:55:21;33.50;;;19.15;;
40541;SDS011;49288;52.194;5.676;2022-07-04T06:00:24;31.75;;;18.80;;
40541;SDS011;49288;52.194;5.676;2022-07-04T06:05:26;30.80;;;15.73;;
40541;SDS011;49288;52.194;5.676;2022-07-04T06:10:29;15.77;;;8.55;;
40541;SDS011;49288;52.194;5.676;2022-07-04T06:15:32;32.03;;;11.45;;
40541;SDS011;49288;52.194;5.676;2022-07-04T06:20:35;21.90;;;10.38;;
40541;SDS011;49288;52.194;5.676;2022-07-04T06:25:37;20.15;;;10.75;;
40541;SDS011;49288;52.194;5.676;2022-07-04T06:30:43;19.55;;;10.50;;
40541;SDS011;49288;52.194;5.676;2022-07-04T06:35:46;25.98;;;10.00;;
40541;SDS011;49288;52.194;5.676;2022-07-04T06:40:56;16.73;;;7.50;;
40541;SDS011;49288;52.194;5.676;2022-07-04T06:46:02;16.80;;;8.18;;
40541;SDS011;49288;52.194;5.676;2022-07-04T06:51:05;15.50;;;6.78;;
40541;SDS011;49288;52.194;5.676;2022-07-04T06:56:07;14.52;;;6.15;;
40541;SDS011;49288;52.194;5.676;2022-07-04T07:01:10;19.38;;;6.57;;
40541;SDS011;49288;52.194;5.676;2022-07-04T07:06:13;16.38;;;5.90;;
40541;SDS011;49288;52.194;5.676;2022-07-04T07:11:17;12.40;;;6.55;;
40541;SDS011;49288;52.194;5.676;2022-07-04T07:16:23;18.23;;;5.95;;
40541;SDS011;49288;52.194;5.676;2022-07-04T07:21:27;17.85;;;6.53;;
40541;SDS011;49288;52.194;5.676;2022-07-04T07:26:30;12.07;;;5.50;;
40541;SDS011;49288;52.194;5.676;2022-07-04T07:31:33;16.10;;;6.35;;
40541;SDS011;49288;52.194;5.676;2022-07-04T07:36:36;11.40;;;4.88;;
40541;SDS011;49288;52.194;5.676;2022-07-04T07:41:57;13.20;;;5.20;;
40541;SDS011;49288;52.194;5.676;2022-07-04T07:47:00;14.68;;;5.97;;
40541;SDS011;49288;52.194;5.676;2022-07-04T07:52:03;13.45;;;5.03;;
40541;SDS011;49288;52.194;5.676;2022-07-04T07:57:08;13.48;;;4.70;;
40541;SDS011;49288;52.194;5.676;2022-07-04T08:02:11;13.02;;;4.68;;
40541;SDS011;49288;52.194;5.676;2022-07-04T08:07:13;9.60;;;4.30;;
40541;SDS011;49288;52.194;5.676;2022-07-04T08:12:25;13.23;;;4.22;;
40541;SDS011;49288;52.194;5.676;2022-07-04T08:17:27;8.98;;;3.25;;
40541;SDS011;49288;52.194;5.676;2022-07-04T08:22:30;8.57;;;4.18;;
40541;SDS011;49288;52.194;5.676;2022-07-04T08:27:33;9.73;;;4.30;;
40541;SDS011;49288;52.194;5.676;2022-07-04T08:32:36;9.93;;;3.80;;
40541;SDS011;49288;52.194;5.676;2022-07-04T08:37:39;11.57;;;4.07;;
40541;SDS011;49288;52.194;5.676;2022-07-04T08:42:43;12.32;;;4.95;;
40541;SDS011;49288;52.194;5.676;2022-07-04T08:47:46;7.07;;;3.33;;
40541;SDS011;49288;52.194;5.676;2022-07-04T08:52:54;8.93;;;3.53;;
40541;SDS011;49288;52.194;5.676;2022-07-04T08:58:00;10.10;;;4.20;;
40541;SDS011;49288;52.194;5.676;2022-07-04T09:03:23;8.68;;;4.18;;
40541;SDS011;49288;52.194;5.676;2022-07-04T09:08:27;9.15;;;3.60;;
40541;SDS011;49288;52.194;5.676;2022-07-04T09:13:30;6.82;;;3.20;;
40541;SDS011;49288;52.194;5.676;2022-07-04T09:18:34;11.45;;;3.38;;
40541;SDS011;49288;52.194;5.676;2022-07-04T09:23:39;12.55;;;2.67;;
40541;SDS011;49288;52.194;5.676;2022-07-04T09:33:57;8.85;;;2.85;;
40541;SDS011;49288;52.194;5.676;2022-07-04T09:39:11;10.02;;;2.70;;
40541;SDS011;49288;52.194;5.676;2022-07-04T09:44:24;6.00;;;2.30;;
40541;SDS011;49288;52.194;5.676;2022-07-04T09:49:28;6.25;;;2.30;;
40541;SDS011;49288;52.194;5.676;2022-07-04T09:54:30;7.15;;;2.05;;
40541;SDS011;49288;52.194;5.676;2022-07-04T09:59:34;4.70;;;1.85;;
40541;SDS011;49288;52.194;5.676;2022-07-04T10:04:55;7.75;;;2.13;;
40541;SDS011;49288;52.194;5.676;2022-07-04T10:09:58;4.85;;;2.13;;
40541;SDS011;49288;52.194;5.676;2022-07-04T10:15:01;6.05;;;2.65;;
40541;SDS011;49288;52.194;5.676;2022-07-04T10:20:04;6.60;;;1.90;;
40541;SDS011;49288;52.194;5.676;2022-07-04T10:25:08;4.45;;;1.92;;
40541;SDS011;49288;52.194;5.676;2022-07-04T10:30:13;6.95;;;1.60;;
40541;SDS011;49288;52.194;5.676;2022-07-04T10:35:18;2.67;;;1.48;;
40541;SDS011;49288;52.194;5.676;2022-07-04T10:51:33;2.08;;;1.60;;
40541;SDS011;49288;52.194;5.676;2022-07-04T10:56:53;5.18;;;1.50;;
40541;SDS011;49288;52.194;5.676;2022-07-04T11:12:33;2.78;;;1.42;;
40541;SDS011;49288;52.194;5.676;2022-07-04T11:17:56;3.30;;;1.50;;
40541;SDS011;49288;52.194;5.676;2022-07-04T11:23:04;5.82;;;1.92;;
40541;SDS011;49288;52.194;5.676;2022-07-04T11:33:46;4.28;;;1.80;;
40541;SDS011;49288;52.194;5.676;2022-07-04T11:38:54;3.50;;;1.67;;
40541;SDS011;49288;52.194;5.676;2022-07-04T11:44:04;1.88;;;1.40;;
40541;SDS011;49288;52.194;5.676;2022-07-04T11:49:26;3.17;;;1.50;;
40541;SDS011;49288;52.194;5.676;2022-07-04T11:54:29;6.32;;;1.52;;
40541;SDS011;49288;52.194;5.676;2022-07-04T11:59:53;2.15;;;1.40;;
40541;SDS011;49288;52.194;5.676;2022-07-04T12:05:02;3.20;;;1.70;;
40541;SDS011;49288;52.194;5.676;2022-07-04T12:10:16;5.70;;;1.70;;
40541;SDS011;49288;52.194;5.676;2022-07-04T12:15:24;2.55;;;1.38;;
40541;SDS011;49288;52.194;5.676;2022-07-04T12:20:43;6.00;;;1.48;;
40541;SDS011;49288;52.194;5.676;2022-07-04T12:25:47;2.55;;;1.63;;
40541;SDS011;49288;52.194;5.676;2022-07-04T12:35:59;7.78;;;1.90;;
40541;SDS011;49288;52.194;5.676;2022-07-04T12:46:31;2.03;;;1.35;;
40541;SDS011;49288;52.194;5.676;2022-07-04T12:51:34;3.03;;;1.40;;
40541;SDS011;49288;52.194;5.676;2022-07-04T12:56:39;3.58;;;1.80;;
40541;SDS011;49288;52.194;5.676;2022-07-04T13:01:45;2.15;;;1.27;;
40541;SDS011;49288;52.194;5.676;2022-07-04T13:06:51;4.45;;;1.40;;
40541;SDS011;49288;52.194;5.676;2022-07-04T13:11:56;4.07;;;1.50;;
40541;SDS011;49288;52.194;5.676;2022-07-04T13:17:18;4.55;;;1.50;;
40541;SDS011;49288;52.194;5.676;2022-07-04T13:22:22;3.30;;;1.45;;
40541;SDS011;49288;52.194;5.676;2022-07-04T13:27:26;4.47;;;1.27;;
40541;SDS011;49288;52.194;5.676;2022-07-04T13:32:29;5.82;;;1.40;;
40541;SDS011;49288;52.194;5.676;2022-07-04T13:37:31;3.40;;;1.40;;
40541;SDS011;49288;52.194;5.676;2022-07-04T13:47:55;2.90;;;1.37;;
40541;SDS011;49288;52.194;5.676;2022-07-04T13:52:58;4.07;;;1.48;;
40541;SDS011;49288;52.194;5.676;2022-07-04T13:58:01;3.95;;;1.33;;
40541;SDS011;49288;52.194;5.676;2022-07-04T14:03:04;2.85;;;1.40;;
40541;SDS011;49288;52.194;5.676;2022-07-04T14:08:07;3.88;;;1.20;;
40541;SDS011;49288;52.194;5.676;2022-07-04T14:13:11;2.88;;;1.33;;
40541;SDS011;49288;52.194;5.676;2022-07-04T14:18:13;4.88;;;1.42;;
40541;SDS011;49288;52.194;5.676;2022-07-04T14:23:16;3.08;;;1.15;;
40541;SDS011;49288;52.194;5.676;2022-07-04T14:28:38;2.30;;;1.50;;
40541;SDS011;49288;52.194;5.676;2022-07-04T14:33:41;3.90;;;1.40;;
40541;SDS011;49288;52.194;5.676;2022-07-04T14:38:44;1.98;;;1.20;;
40541;SDS011;49288;52.194;5.676;2022-07-04T14:43:47;3.00;;;1.33;;
40541;SDS011;49288;52.194;5.676;2022-07-04T14:48:51;3.13;;;1.40;;
40541;SDS011;49288;52.194;5.676;2022-07-04T14:53:55;3.55;;;1.50;;
40541;SDS011;49288;52.194;5.676;2022-07-04T15:04:19;4.18;;;1.33;;
40541;SDS011;49288;52.194;5.676;2022-07-04T15:09:22;2.78;;;1.23;;
40541;SDS011;49288;52.194;5.676;2022-07-04T15:14:29;2.47;;;1.23;;
40541;SDS011;49288;52.194;5.676;2022-07-04T15:19:32;3.90;;;1.05;;
40541;SDS011;49288;52.194;5.676;2022-07-04T15:24:55;2.85;;;1.50;;
40541;SDS011;49288;52.194;5.676;2022-07-04T15:29:57;2.08;;;1.25;;
40541;SDS011;49288;52.194;5.676;2022-07-04T15:35:18;2.75;;;1.48;;
40541;SDS011;49288;52.194;5.676;2022-07-04T15:40:21;3.13;;;1.15;;
40541;SDS011;49288;52.194;5.676;2022-07-04T15:45:25;5.55;;;1.50;;
40541;SDS011;49288;52.194;5.676;2022-07-04T15:50:27;4.57;;;1.27;;
40541;SDS011;49288;52.194;5.676;2022-07-04T15:55:30;2.70;;;1.30;;
40541;SDS011;49288;52.194;5.676;2022-07-04T16:00:33;5.90;;;1.70;;
40541;SDS011;49288;52.194;5.676;2022-07-04T16:05:36;4.60;;;1.70;;
40541;SDS011;49288;52.194;5.676;2022-07-04T16:10:40;7.00;;;1.73;;
40541;SDS011;49288;52.194;5.676;2022-07-04T16:20:45;3.63;;;1.40;;
40541;SDS011;49288;52.194;5.676;2022-07-04T16:30:53;2.53;;;1.30;;
40541;SDS011;49288;52.194;5.676;2022-07-04T16:35:56;4.97;;;1.42;;
40541;SDS011;49288;52.194;5.676;2022-07-04T16:40:59;3.55;;;1.65;;
40541;SDS011;49288;52.194;5.676;2022-07-04T16:46:03;3.03;;;1.85;;
40541;SDS011;49288;52.194;5.676;2022-07-04T16:56:09;4.57;;;1.48;;
40541;SDS011;49288;52.194;5.676;2022-07-04T17:01:12;2.25;;;1.50;;
40541;SDS011;49288;52.194;5.676;2022-07-04T17:06:17;5.22;;;1.55;;
40541;SDS011;49288;52.194;5.676;2022-07-04T17:11:19;3.47;;;1.75;;
40541;SDS011;49288;52.194;5.676;2022-07-04T17:16:22;6.68;;;1.80;;
40541;SDS011;49288;52.194;5.676;2022-07-04T17:21:26;2.95;;;1.42;;
40541;SDS011;49288;52.194;5.676;2022-07-04T17:26:30;3.30;;;1.50;;
40541;SDS011;49288;52.194;5.676;2022-07-04T17:31:53;2.42;;;1.45;;
40541;SDS011;49288;52.194;5.676;2022-07-04T17:36:58;6.15;;;1.65;;
40541;SDS011;49288;52.194;5.676;2022-07-04T17:42:02;4.13;;;1.63;;
40541;SDS011;49288;52.194;5.676;2022-07-04T17:47:08;5.63;;;1.42;;
40541;SDS011;49288;52.194;5.676;2022-07-04T17:52:11;3.55;;;1.58;;
40541;SDS011;49288;52.194;5.676;2022-07-04T17:57:14;3.22;;;1.52;;
40541;SDS011;49288;52.194;5.676;2022-07-04T18:02:17;6.22;;;2.03;;
40541;SDS011;49288;52.194;5.676;2022-07-04T18:12:23;5.10;;;1.60;;
40541;SDS011;49288;52.194;5.676;2022-07-04T18:17:31;4.43;;;1.60;;
40541;SDS011;49288;52.194;5.676;2022-07-04T18:22:33;3.60;;;1.60;;
40541;SDS011;49288;52.194;5.676;2022-07-04T18:27:36;2.58;;;1.58;;
40541;SDS011;49288;52.194;5.676;2022-07-04T18:32:39;2.38;;;1.30;;
40541;SDS011;49288;52.194;5.676;2022-07-04T18:37:42;3.65;;;1.58;;
40541;SDS011;49288;52.194;5.676;2022-07-04T18:42:46;3.30;;;1.55;;
40541;SDS011;49288;52.194;5.676;2022-07-04T18:48:07;1.77;;;1.25;;
40541;SDS011;49288;52.194;5.676;2022-07-04T18:58:14;2.40;;;1.35;;
40541;SDS011;49288;52.194;5.676;2022-07-04T19:03:24;2.53;;;1.50;;
40541;SDS011;49288;52.194;5.676;2022-07-04T19:08:27;4.53;;;1.53;;
40541;SDS011;49288;52.194;5.676;2022-07-04T19:13:32;1.90;;;1.40;;
40541;SDS011;49288;52.194;5.676;2022-07-04T19:18:35;3.22;;;1.45;;
40541;SDS011;49288;52.194;5.676;2022-07-04T19:23:38;1.53;;;1.30;;
40541;SDS011;49288;52.194;5.676;2022-07-04T19:28:42;2.35;;;1.48;;
40541;SDS011;49288;52.194;5.676;2022-07-04T19:33:45;2.45;;;1.48;;
40541;SDS011;49288;52.194;5.676;2022-07-04T19:38:48;3.58;;;1.50;;
40541;SDS011;49288;52.194;5.676;2022-07-04T19:48:55;5.72;;;1.55;;
40541;SDS011;49288;52.194;5.676;2022-07-04T19:53:57;2.30;;;1.42;;
40541;SDS011;49288;52.194;5.676;2022-07-04T19:59:00;4.50;;;1.70;;
40541;SDS011;49288;52.194;5.676;2022-07-04T20:04:04;4.28;;;1.60;;
40541;SDS011;49288;52.194;5.676;2022-07-04T20:09:08;2.50;;;1.60;;
40541;SDS011;49288;52.194;5.676;2022-07-04T20:14:10;1.67;;;1.25;;
40541;SDS011;49288;52.194;5.676;2022-07-04T20:19:13;3.38;;;1.85;;
40541;SDS011;49288;52.194;5.676;2022-07-04T20:24:16;2.92;;;1.60;;
40541;SDS011;49288;52.194;5.676;2022-07-04T20:29:18;4.93;;;1.67;;
40541;SDS011;49288;52.194;5.676;2022-07-04T20:34:21;2.40;;;1.70;;
40541;SDS011;49288;52.194;5.676;2022-07-04T20:39:27;2.30;;;1.65;;
40541;SDS011;49288;52.194;5.676;2022-07-04T20:44:48;4.43;;;1.63;;
40541;SDS011;49288;52.194;5.676;2022-07-04T20:49:51;3.10;;;1.50;;
40541;SDS011;49288;52.194;5.676;2022-07-04T20:54:54;4.05;;;1.42;;
40541;SDS011;49288;52.194;5.676;2022-07-04T20:59:59;4.50;;;1.67;;
40541;SDS011;49288;52.194;5.676;2022-07-04T21:05:03;3.92;;;1.65;;
40541;SDS011;49288;52.194;5.676;2022-07-04T21:10:24;3.67;;;1.85;;
40541;SDS011;49288;52.194;5.676;2022-07-04T21:15:29;2.65;;;1.75;;
40541;SDS011;49288;52.194;5.676;2022-07-04T21:20:33;4.63;;;2.00;;
40541;SDS011;49288;52.194;5.676;2022-07-04T21:25:36;3.28;;;1.77;;
40541;SDS011;49288;52.194;5.676;2022-07-04T21:30:39;3.53;;;1.80;;
40541;SDS011;49288;52.194;5.676;2022-07-04T21:35:42;3.70;;;1.75;;
40541;SDS011;49288;52.194;5.676;2022-07-04T21:40:46;3.03;;;1.80;;
40541;SDS011;49288;52.194;5.676;2022-07-04T21:45:48;3.00;;;1.70;;
40541;SDS011;49288;52.194;5.676;2022-07-04T21:50:57;2.63;;;1.67;;
40541;SDS011;49288;52.194;5.676;2022-07-04T21:55:59;2.00;;;1.67;;
40541;SDS011;49288;52.194;5.676;2022-07-04T22:01:02;4.43;;;1.90;;
40541;SDS011;49288;52.194;5.676;2022-07-04T22:06:05;4.78;;;1.60;;
40541;SDS011;49288;52.194;5.676;2022-07-04T22:11:09;3.45;;;2.00;;
40541;SDS011;49288;52.194;5.676;2022-07-04T22:16:12;2.53;;;1.55;;
40541;SDS011;49288;52.194;5.676;2022-07-04T22:21:15;2.28;;;1.73;;
40541;SDS011;49288;52.194;5.676;2022-07-04T22:26:18;1.70;;;1.50;;
40541;SDS011;49288;52.194;5.676;2022-07-04T22:31:20;1.83;;;1.60;;
40541;SDS011;49288;52.194;5.676;2022-07-04T22:36:23;2.92;;;1.98;;
40541;SDS011;49288;52.194;5.676;2022-07-04T22:41:26;3.03;;;1.92;;
40541;SDS011;49288;52.194;5.676;2022-07-04T22:46:29;4.88;;;1.88;;
40541;SDS011;49288;52.194;5.676;2022-07-04T22:51:31;4.45;;;1.75;;
40541;SDS011;49288;52.194;5.676;2022-07-04T22:56:34;5.93;;;1.95;;
40541;SDS011;49288;52.194;5.676;2022-07-04T23:01:37;2.75;;;1.92;;
40541;SDS011;49288;52.194;5.676;2022-07-04T23:06:40;3.00;;;2.00;;
40541;SDS011;49288;52.194;5.676;2022-07-04T23:11:43;3.35;;;2.17;;
40541;SDS011;49288;52.194;5.676;2022-07-04T23:16:46;2.45;;;1.90;;
40541;SDS011;49288;52.194;5.676;2022-07-04T23:21:49;3.38;;;1.85;;
40541;SDS011;49288;52.194;5.676;2022-07-04T23:26:51;3.75;;;2.20;;
40541;SDS011;49288;52.194;5.676;2022-07-04T23:31:54;3.50;;;2.17;;
40541;SDS011;49288;52.194;5.676;2022-07-04T23:36:57;2.88;;;2.30;;
40541;SDS011;49288;52.194;5.676;2022-07-04T23:42:01;2.90;;;2.13;;
40541;SDS011;49288;52.194;5.676;2022-07-04T23:52:08;4.75;;;1.92;;
40541;SDS011;49288;52.194;5.676;2022-07-04T23:57:11;6.35;;;2.20;;
